Flight Track Log - Related Links

Times and Time Zones

All times are in EDT time to prevent confusion due to time zone crossing. See the UAL1208 flight status page for this flight to view local times or setup timezone preferences in your user account.


Time Position Orientation Groundspeed Altitude Reporting Facility
EDT Latitude Longitude Course Direction KTS MPH feet Rate Location/Type
Tue 07:22:50 PM 37.6667 -122.3333 63° Northeast 203 234 1,700  Level Northern Cal TRACON
Tue 07:23:50 PM 37.7000 -122.2667 58° Northeast 227 261 4,800 2,864 Climbing Northern Cal TRACON
Tue 07:24:18 PM 37.7203 -122.2525 29° Northeast 222 255 5,900 2,360 Climbing Oakland Center
Tue 07:25:00 PM 37.6411 -122.2857 72° East  Level FlightAware Approximate
Tue 07:25:19 PM 37.7544 -122.1747 61° Northeast 262 302 8,300  Level Oakland Center
Tue 07:26:00 PM 37.6878 -122.1411 58° Northeast  Level FlightAware Approximate
Tue 07:26:20 PM 37.7803 -122.0819 71° East 278 320 10,700  Level Oakland Center
Tue 07:27:00 PM 37.7347 -121.9959 67° East  Level FlightAware Approximate
Tue 07:27:21 PM 37.8164 -121.9467 71° East 337 388 13,100  Level Oakland Center
Tue 07:28:00 PM 37.7785 -121.8538 63° Northeast  Level FlightAware Approximate
Tue 07:28:23 PM 37.8500 -121.8261 71° East 360 414 15,900  Level Oakland Center
Tue 07:29:24 PM 37.8833 -121.7053 71° East 366 421 18,400 2,508 Climbing Oakland Center
Tue 07:30:25 PM 37.9178 -121.5828 70° East 370 426 21,000 2,262 Climbing Oakland Center
Tue 07:31:26 PM 37.9522 -121.4539 71° East 375 432 23,000 1,951 Climbing Oakland Center
Tue 07:32:28 PM 37.9878 -121.3244 71° East 388 447 25,000 1,902 Climbing Oakland Center
Tue 07:33:29 PM 38.0222 -121.1956 71° East 389 448 26,900 1,770 Climbing Oakland Center
Tue 07:34:30 PM 38.0581 -121.0653 71° East 393 452 28,600 1,475 Climbing Oakland Center
Tue 07:35:31 PM 38.0928 -120.9331 72° East 396 456 29,900 1,415 Climbing Oakland Center
Tue 07:36:33 PM 38.1306 -120.7703 74° East 402 463 31,500 1,317 Climbing Oakland Center
Tue 07:37:34 PM 38.1639 -120.6342 73° East 405 466 32,600 787 Climbing Oakland Center
Tue 07:38:35 PM 38.1897 -120.4933 77° East 410 472 33,100 541 Climbing Oakland Center
Tue 07:39:36 PM 38.2158 -120.3433 77° East 425 489 33,700 634 Climbing Oakland Center
Tue 07:40:38 PM 38.2422 -120.1914 77° East 437 503 34,400 634 Climbing Oakland Center
Tue 07:41:39 PM 38.2706 -120.0364 77° East 446 513 35,000 295 Climbing Oakland Center
Tue 07:42:40 PM 38.2967 -119.8808 78° East 450 518 35,000  Level Oakland Center
Tue 07:43:41 PM 38.3211 -119.7303 78° East 442 509 35,000  Level Oakland Center
Tue 07:44:43 PM 38.3475 -119.5794 77° East 437 503 35,000  Level Oakland Center
Tue 07:45:44 PM 38.3736 -119.4158 78° East 437 503 35,000  Level Oakland Center
Tue 07:46:45 PM 38.3986 -119.2636 78° East 441 507 35,000  Level Oakland Center
Tue 07:47:47 PM 38.4239 -119.1147 78° East 435 501 35,000  Level Oakland Center
Tue 07:48:48 PM 38.4536 -118.9289 78° East 443 510 35,000  Level Oakland Center
Tue 07:49:49 PM 38.4772 -118.7753 79° East 444 511 35,000  Level Oakland Center
Tue 07:50:51 PM 38.5017 -118.6269 78° East 436 502 35,000  Level Oakland Center
Tue 07:51:52 PM 38.5258 -118.4781 78° East 433 498 35,000  Level Oakland Center
Tue 07:52:53 PM 38.5489 -118.3275 79° East 433 498 35,000  Level Oakland Center
Tue 07:53:54 PM 38.5717 -118.1781 79° East 431 496 35,000  Level Oakland Center
Tue 07:54:56 PM 38.5961 -118.0228 79° East 429 494 35,000  Level Oakland Center
Tue 07:55:57 PM 38.6186 -117.8736 79° East 427 491 35,000  Level Oakland Center
Tue 07:56:34 PM 38.6317 -117.7850 79° East 424 488 35,000  Level Salt Lake Center
Tue 07:56:58 PM 38.6417 -117.7244 78° East 425 489 35,000  Level Oakland Center
Tue 07:57:59 PM 38.6636 -117.5747 79° East 427 491 35,000  Level Oakland Center
Tue 07:59:01 PM 38.6858 -117.4247 79° East 427 491 35,000  Level Oakland Center
Tue 07:59:39 PM 38.6986 -117.3350 80° East 426 490 35,000  Level Salt Lake Center
Tue 08:00:41 PM 38.7244 -117.1525 80° East 431 496 35,000  Level Salt Lake Center
Tue 08:01:03 PM 38.7294 -117.1219 78° East 431 496 35,000  Level Oakland Center
Tue 08:02:04 PM 38.7511 -116.9731 79° East 426 490 35,000  Level Oakland Center
Tue 08:02:44 PM 38.7675 -116.8525 80° East 426 490 35,000  Level Salt Lake Center
Tue 08:03:46 PM 38.7883 -116.7022 80° East 427 491 35,000  Level Salt Lake Center
Tue 08:04:47 PM 38.8103 -116.5531 79° East 426 490 35,000  Level Salt Lake Center
Tue 08:05:08 PM 38.8183 -116.4928 80° East 426 490 35,000  Level Oakland Center
Tue 08:06:09 PM 38.8394 -116.3417 80° East 428 493 35,000  Level Oakland Center
Tue 08:06:51 PM 38.8522 -116.2506 80° East 431 496 35,000  Level Salt Lake Center
Tue 08:07:52 PM 38.8711 -116.0978 81° East 433 498 35,000  Level Salt Lake Center
Tue 08:08:54 PM 38.8931 -115.9464 79° East 433 498 35,000  Level Salt Lake Center
Tue 08:09:55 PM 38.9167 -115.7644 80° East 430 495 35,000  Level Salt Lake Center
Tue 08:10:57 PM 38.9339 -115.6128 82° East 430 495 35,000  Level Salt Lake Center
Tue 08:11:59 PM 38.9375 -115.4589 88° East 429 494 35,000  Level Salt Lake Center
Tue 08:13:00 PM 38.9428 -115.3117 87° East 431 496 35,000  Level Salt Lake Center
Tue 08:14:02 PM 38.9464 -115.1583 88° East 431 496 35,000  Level Salt Lake Center
Tue 08:15:03 PM 38.9503 -115.0050 88° East 430 495 35,000  Level Salt Lake Center
Tue 08:16:05 PM 38.9553 -114.8531 88° East 429 494 35,000  Level Salt Lake Center
Tue 08:17:06 PM 38.9803 -114.6714 80° East 430 495 35,000  Level Salt Lake Center
Tue 08:18:08 PM 39.0042 -114.5233 78° East 427 491 35,000  Level Salt Lake Center
Tue 08:19:09 PM 39.0264 -114.3753 79° East 423 487 35,000  Level Salt Lake Center
Tue 08:20:11 PM 39.0492 -114.2264 79° East 424 488 35,000  Level Salt Lake Center
Tue 08:21:13 PM 39.0722 -114.0772 79° East 425 489 35,000  Level Salt Lake Center
Tue 08:22:14 PM 39.0953 -113.9278 79° East 427 491 35,000  Level Salt Lake Center
Tue 08:23:16 PM 39.1178 -113.7781 79° East 426 490 35,000  Level Salt Lake Center
Tue 08:24:17 PM 39.1408 -113.6300 79° East 423 487 35,000  Level Salt Lake Center
Tue 08:25:19 PM 39.1672 -113.4489 79° East 428 493 35,000  Level Salt Lake Center
Tue 08:26:20 PM 39.1894 -113.2983 79° East 429 494 35,000  Level Salt Lake Center
Tue 08:27:22 PM 39.2117 -113.1458 79° East 431 496 35,000  Level Salt Lake Center
Tue 08:28:23 PM 39.2331 -112.9944 80° East 430 495 35,000  Level Salt Lake Center
Tue 08:29:25 PM 39.2547 -112.8414 80° East 432 497 35,000  Level Salt Lake Center
Tue 08:30:27 PM 39.2764 -112.6869 80° East 435 501 35,000  Level Salt Lake Center
Tue 08:31:28 PM 39.3017 -112.5189 79° East 434 499 35,000  Level Salt Lake Center
Tue 08:32:30 PM 39.3297 -112.3669 77° East 437 503 35,000  Level Salt Lake Center
Tue 08:33:31 PM 39.3586 -112.2147 76° East 438 504 35,000  Level Salt Lake Center
Tue 08:34:33 PM 39.3864 -112.0617 77° East 440 506 35,000  Level Salt Lake Center
Tue 08:35:35 PM 39.4139 -111.9097 77° East 437 503 35,000  Level Salt Lake Center
Tue 08:36:36 PM 39.4414 -111.7586 77° East 436 502 35,000  Level Salt Lake Center
Tue 08:37:38 PM 39.4744 -111.5800 76° East 429 494 35,000  Level Salt Lake Center
Tue 08:38:39 PM 39.5006 -111.4294 77° East 431 496 35,000  Level Salt Lake Center
Tue 08:39:41 PM 39.5269 -111.2831 77° East 423 487 35,000  Level Salt Lake Center
Tue 08:40:43 PM 39.5550 -111.1231 77° East 427 491 35,000  Level Salt Lake Center
Tue 08:41:44 PM 39.5797 -110.9800 77° East 427 491 35,000  Level Salt Lake Center
Tue 08:42:46 PM 39.6078 -110.8147 78° East 423 487 35,000  Level Salt Lake Center
Tue 08:43:48 PM 39.6333 -110.6744 77° East 418 481 35,000  Level Salt Lake Center
Tue 08:44:49 PM 39.6575 -110.5328 77° East 421 484 35,000  Level Salt Lake Center
Tue 08:45:51 PM 39.6850 -110.3653 78° East 425 489 35,000 145 Level Salt Lake Center
Tue 08:46:53 PM 39.7086 -110.2192 78° East 431 496 35,300 585 Climbing Salt Lake Center
Tue 08:47:54 PM 39.7389 -110.0453 77° East 441 507 36,200 634 Climbing Salt Lake Center
Tue 08:48:56 PM 39.7636 -109.8947 78° East 444 511 36,600 390 Climbing Salt Lake Center
Tue 08:49:57 PM 39.7917 -109.7153 78° East 452 520 37,000 233 Climbing Salt Lake Center
Tue 08:50:39 PM 39.8078 -109.6131 78° East 449 517 37,000  Level Denver Center
Tue 08:51:40 PM 39.8319 -109.4622 78° East 446 513 37,000  Level Denver Center
Tue 08:52:42 PM 39.8600 -109.2867 78° East 444 511 37,000  Level Denver Center
Tue 08:53:02 PM 39.8683 -109.2381 77° East 443 510 37,000  Level Salt Lake Center
Tue 08:53:43 PM 39.8839 -109.1364 79° East 442 509 37,000  Level Denver Center
Tue 08:54:04 PM 39.8922 -109.0872 78° East 442 509 37,000  Level Salt Lake Center
Tue 08:55:05 PM 39.9161 -108.9356 78° East 443 510 37,000  Level Salt Lake Center
Tue 08:55:47 PM 39.9353 -108.8086 79° East 440 506 37,000  Level Denver Center
Tue 08:56:48 PM 39.9586 -108.6569 79° East 441 507 37,000  Level Denver Center
Tue 08:57:49 PM 39.9778 -108.5303 79° East 443 510 37,000  Level Denver Center
Tue 08:58:51 PM 40.0072 -108.3294 79° East 441 507 37,000  Level Denver Center
Tue 08:59:53 PM 40.0297 -108.1775 79° East 445 512 37,000  Level Denver Center
Tue 09:00:54 PM 40.0561 -108.0006 79° East 443 510 37,000  Level Denver Center
Tue 09:01:56 PM 40.0831 -107.8503 77° East 444 511 37,000  Level Denver Center
Tue 09:02:57 PM 40.1189 -107.7006 73° East 449 517 37,000  Level Denver Center
Tue 09:03:59 PM 40.1592 -107.5272 73° East 447 514 37,000  Level Denver Center
Tue 09:05:00 PM 40.1939 -107.3789 73° East 447 514 37,000  Level Denver Center
Tue 09:06:02 PM 40.2322 -107.2042 74° East 447 514 37,000  Level Denver Center
Tue 09:07:03 PM 40.2661 -107.0547 73° East 448 516 37,000  Level Denver Center
Tue 09:08:17 PM 40.3047 -106.8800 74° East 447 514 37,000  Level Denver Center
Tue 09:09:19 PM 40.3475 -106.6950 73° East 446 513 37,000  Level Denver Center
Tue 09:10:20 PM 40.3817 -106.5397 74° East 443 510 37,000  Level Denver Center
Tue 09:11:22 PM 40.4144 -106.3850 74° East 442 509 37,000  Level Denver Center
Tue 09:12:23 PM 40.4469 -106.2339 74° East 448 516 37,000  Level Denver Center
Tue 09:13:25 PM 40.4875 -106.0489 74° East 448 516 37,000  Level Denver Center
Tue 09:14:26 PM 40.5200 -105.8906 75° East 446 513 37,000  Level Denver Center
Tue 09:15:28 PM 40.5542 -105.7325 74° East 444 511 37,000  Level Denver Center
Tue 09:16:41 PM 40.5872 -105.5753 74° East 444 511 37,000  Level Denver Center
Tue 09:17:43 PM 40.6256 -105.3881 75° East 445 512 37,000  Level Denver Center
Tue 09:18:45 PM 40.6583 -105.2286 75° East 446 513 37,000  Level Denver Center
Tue 09:19:46 PM 40.6922 -105.0697 74° East 446 513 37,000  Level Denver Center
Tue 09:20:48 PM 40.7242 -104.9108 75° East 445 512 37,000  Level Denver Center
Tue 09:21:49 PM 40.7561 -104.7506 75° East 445 512 37,000  Level Denver Center
Tue 09:22:51 PM 40.7881 -104.5922 75° East 444 511 37,000  Level Denver Center
Tue 09:23:52 PM 40.8200 -104.4328 75° East 446 513 37,000  Level Denver Center
Tue 09:24:54 PM 40.8569 -104.2450 75° East 449 517 37,000  Level Denver Center
Tue 09:25:55 PM 40.8881 -104.0825 76° East 450 518 37,000  Level Denver Center
Tue 09:26:57 PM 40.9200 -103.9192 75° East 453 521 37,000  Level Denver Center
Tue 09:27:58 PM 40.9522 -103.7550 75° East 457 526 37,000  Level Denver Center
Tue 09:29:00 PM 40.9836 -103.5894 76° East 459 528 37,000  Level Denver Center
Tue 09:30:01 PM 41.0119 -103.4342 76° East 462 532 37,000  Level Denver Center
Tue 09:31:03 PM 41.0467 -103.2517 76° East 460 529 37,000  Level Denver Center
Tue 09:32:04 PM 41.0747 -103.0950 77° East 458 527 37,000  Level Denver Center
Tue 09:33:06 PM 41.1028 -102.9150 78° East 452 520 37,000  Level Denver Center
Tue 09:34:07 PM 41.1122 -102.7828 85° East 452 520 37,000  Level Denver Center
Tue 09:35:09 PM 41.1269 -102.5956 84° East 456 525 37,000  Level Denver Center
Tue 09:36:10 PM 41.1411 -102.4094 84° East 455 524 37,000  Level Denver Center
Tue 09:37:24 PM 41.1544 -102.2514 84° East 452 520 37,000  Level Denver Center
Tue 09:38:26 PM 41.1700 -102.0400 84° East 451 519 37,000  Level Denver Center
Tue 09:39:27 PM 41.1797 -101.9094 84° East 448 516 37,000  Level Denver Center
Tue 09:40:29 PM 41.1922 -101.6981 85° East 451 519 37,000  Level Denver Center
Tue 09:41:31 PM 41.2036 -101.5392 85° East 452 520 37,000  Level Denver Center
Tue 09:42:32 PM 41.2164 -101.3544 85° East 450 518 37,000  Level Denver Center
Tue 09:43:34 PM 41.2267 -101.1972 85° East 445 512 37,000  Level Denver Center
Tue 09:44:36 PM 41.2372 -101.0394 85° East 445 512 37,000  Level Denver Center
Tue 09:45:37 PM 41.2481 -100.8550 85° East 446 513 37,000  Level Denver Center
Tue 09:46:39 PM 41.2569 -100.7228 85° East 447 514 37,000  Level Denver Center
Tue 09:47:41 PM 41.2692 -100.5111 86° East 447 514 37,000  Level Denver Center
Tue 09:48:42 PM 41.2772 -100.3781 85° East 449 517 37,000  Level Denver Center
Tue 09:49:44 PM 41.2878 -100.1917 86° East 452 520 37,000  Level Denver Center
Tue 09:50:45 PM 41.2986 -100.0036 86° East 454 522 37,000  Level Denver Center
Tue 09:51:47 PM 41.3067 -99.8422 86° East 455 524 37,000  Level Denver Center
Tue 09:52:48 PM 41.3169 -99.6539 86° East 457 526 37,000  Level Denver Center
Tue 09:53:50 PM 41.3242 -99.5200 86° East 456 525 37,000  Level Denver Center
Tue 09:54:52 PM 41.3322 -99.3381 87° East 458 527 37,000  Level Denver Center
Tue 09:55:53 PM 41.3417 -99.1344 86° East 458 527 37,000  Level Denver Center
Tue 09:56:55 PM 41.3497 -98.9631 86° East 458 527 37,000  Level Denver Center
Tue 09:57:56 PM 41.3578 -98.7894 86° East 462 532 37,000  Level Denver Center
Tue 09:58:58 PM 41.3656 -98.6158 87° East 463 533 37,000  Level Denver Center
Tue 10:00:00 PM 41.3725 -98.4422 87° East 465 535 37,000  Level Denver Center
Tue 10:00:53 PM 41.3775 -98.3042 87° East 467 537 37,000  Level Minneapolis Center
Tue 10:01:55 PM 41.3831 -98.1311 87° East 466 536 37,000  Level Minneapolis Center
Tue 10:02:56 PM 41.3886 -97.9328 88° East 465 535 37,000  Level Minneapolis Center
Tue 10:03:57 PM 41.3942 -97.7611 87° East 463 533 37,000  Level Minneapolis Center
Tue 10:04:58 PM 41.3989 -97.5903 88° East 463 533 37,000  Level Minneapolis Center
Tue 10:05:59 PM 41.4033 -97.4189 88° East 463 533 37,000  Level Minneapolis Center
Tue 10:07:01 PM 41.4072 -97.2481 88° East 462 532 37,000  Level Minneapolis Center
Tue 10:08:02 PM 41.4108 -97.0761 88° East 464 534 37,000  Level Minneapolis Center
Tue 10:09:03 PM 41.4142 -96.9042 88° East 464 534 37,000  Level Minneapolis Center
Tue 10:10:04 PM 41.4186 -96.7344 88° East 461 531 37,000  Level Minneapolis Center
Tue 10:11:06 PM 41.4222 -96.5633 88° East 461 531 37,000  Level Minneapolis Center
Tue 10:12:07 PM 41.4247 -96.3917 89° East 463 533 37,000  Level Minneapolis Center
Tue 10:13:08 PM 41.4275 -96.2089 89° East 465 535 37,000  Level Minneapolis Center
Tue 10:14:09 PM 41.4294 -96.0389 89° East 462 532 37,000  Level Minneapolis Center
Tue 10:15:10 PM 41.4325 -95.8672 89° East 462 532 37,000  Level Minneapolis Center
Tue 10:16:11 PM 41.4331 -95.6964 90° East 462 532 37,000  Level Minneapolis Center
Tue 10:17:12 PM 41.4350 -95.5231 89° East 459 528 37,000  Level Minneapolis Center
Tue 10:18:13 PM 41.4367 -95.3539 89° East 457 526 37,000  Level Minneapolis Center
Tue 10:19:15 PM 41.4389 -95.1861 89° East 455 524 37,000  Level Minneapolis Center
Tue 10:20:16 PM 41.4394 -94.9844 90° East 455 524 37,000  Level Minneapolis Center
Tue 10:21:17 PM 41.4397 -94.8503 90° East 453 521 37,000  Level Minneapolis Center
Tue 10:22:18 PM 41.4406 -94.6519 90° East 447 514 37,000  Level Minneapolis Center
Tue 10:23:19 PM 41.4389 -94.4850 91° East 449 517 37,000  Level Minneapolis Center
Tue 10:24:20 PM 41.4386 -94.3189 90° East 449 517 37,000  Level Minneapolis Center
Tue 10:25:21 PM 41.4389 -94.1719 90° East 450 518 37,000  Level Minneapolis Center
Tue 10:26:22 PM 41.4369 -93.9756 91° East 446 513 37,000  Level Minneapolis Center
Tue 10:27:23 PM 41.4372 -93.8108 90° East 447 514 37,000  Level Minneapolis Center
Tue 10:28:24 PM 41.4369 -93.6486 90° East 444 511 37,000  Level Minneapolis Center
Tue 10:29:25 PM 41.4442 -93.4856 87° East 443 510 37,000  Level Minneapolis Center
Tue 10:30:26 PM 41.4528 -93.3228 86° East 444 511 37,000  Level Minneapolis Center
Tue 10:31:27 PM 41.4603 -93.1628 86° East 439 505 37,000  Level Minneapolis Center
Tue 10:32:28 PM 41.4675 -93.0031 86° East 436 502 37,000  Level Minneapolis Center
Tue 10:33:29 PM 41.4744 -92.8422 87° East 437 503 37,000  Level Minneapolis Center
Tue 10:34:30 PM 41.4806 -92.6819 87° East 436 502 37,000  Level Minneapolis Center
Tue 10:35:31 PM 41.4894 -92.4869 86° East 439 505 37,000  Level Minneapolis Center
Tue 10:36:32 PM 41.4953 -92.3228 87° East 442 509 37,000  Level Minneapolis Center
Tue 10:37:33 PM 41.5008 -92.1592 87° East 445 512 37,000  Level Minneapolis Center
Tue 10:38:34 PM 41.5067 -91.9922 87° East 449 517 37,000  Level Minneapolis Center
Tue 10:39:35 PM 41.5125 -91.8281 87° East 449 517 37,000  Level Minneapolis Center
Tue 10:40:36 PM 41.5169 -91.6725 88° East 449 517 37,000  Level Minneapolis Center
Tue 10:41:46 PM 41.4939 -91.4681 98° East 446 513 37,000  Level Chicago Center
Tue 10:42:47 PM 41.4681 -91.3111 102° East 441 507 37,000  Level Chicago Center
Tue 10:43:48 PM 41.4425 -91.1656 103° East 440 506 37,000  Level Chicago Center
Tue 10:44:49 PM 41.4158 -91.0069 103° East 438 504 37,000  Level Chicago Center
Tue 10:45:51 PM 41.3828 -90.8189 103° East 435 501 37,000  Level Chicago Center
Tue 10:46:52 PM 41.3561 -90.6642 103° East 430 495 37,000  Level Chicago Center
Tue 10:47:53 PM 41.3278 -90.5103 104° East 428 493 37,000  Level Chicago Center
Tue 10:48:54 PM 41.3003 -90.3536 103° East 432 497 37,000  Level Chicago Center
Tue 10:49:56 PM 41.2719 -90.1986 104° East 431 496 37,000  Level Chicago Center
Tue 10:50:57 PM 41.2436 -90.0419 103° East 434 499 37,000  Level Chicago Center
Tue 10:51:58 PM 41.2147 -89.8858 104° East 434 499 37,000  Level Chicago Center
Tue 10:52:59 PM 41.1861 -89.7294 104° East 432 497 37,000  Level Chicago Center
Tue 10:54:00 PM 41.1608 -89.5725 102° East 432 497 37,000  Level Chicago Center
Tue 10:55:01 PM 41.1625 -89.4108 89° East 437 503 37,000  Level Chicago Center
Tue 10:56:02 PM 41.1647 -89.2514 89° East 433 498 37,000  Level Chicago Center
Tue 10:57:04 PM 41.1656 -89.0903 90° East 429 494 37,000  Level Chicago Center
Tue 10:58:05 PM 41.1653 -88.9322 90° East 431 496 37,000  Level Chicago Center
Tue 10:59:06 PM 41.1669 -88.7428 89° East 432 497 37,000  Level Chicago Center
Tue 11:00:07 PM 41.1675 -88.5847 90° East 433 498 37,000  Level Chicago Center
Tue 11:01:08 PM 41.1692 -88.4267 89° East 431 496 37,000  Level Chicago Center
Tue 11:02:09 PM 41.1694 -88.2714 90° East 427 491 37,000  Level Chicago Center
Tue 11:03:10 PM 41.1703 -88.1169 90° East 426 490 37,000  Level Chicago Center
Tue 11:04:11 PM 41.1692 -87.9642 91° East 424 488 37,000  Level Chicago Center
Tue 11:05:12 PM 41.1694 -87.7825 90° East 418 481 37,000  Level Chicago Center
Tue 11:06:13 PM 41.1694 -87.6294 90° East 419 482 37,000  Level Chicago Center
Tue 11:07:14 PM 41.1697 -87.4744 90° East 424 488 37,000  Level Chicago Center
Tue 11:08:15 PM 41.1681 -87.3219 91° East 418 481 37,000  Level Chicago Center
Tue 11:09:16 PM 41.1672 -87.1661 90° East 424 488 37,000  Level Chicago Center
Tue 11:10:17 PM 41.1656 -87.0103 91° East 424 488 37,000  Level Chicago Center
Tue 11:11:18 PM 41.1447 -86.8586 100° East 421 484 37,000  Level Chicago Center
Tue 11:12:19 PM 41.1094 -86.7000 106° East 419 482 37,000  Level Chicago Center
Tue 11:13:20 PM 41.0783 -86.5511 105° East 421 484 37,000  Level Chicago Center
Tue 11:14:21 PM 41.0469 -86.4053 106° East 416 479 37,000  Level Chicago Center
Tue 11:15:22 PM 41.0156 -86.2589 106° East 415 478 37,000  Level Chicago Center
Tue 11:16:23 PM 40.9844 -86.1158 106° East 408 470 37,000  Level Chicago Center
Tue 11:17:24 PM 40.9533 -85.9731 106° East 407 468 37,000  Level Chicago Center
Tue 11:18:25 PM 40.9225 -85.8333 106° East 402 463 37,000  Level Chicago Center
Tue 11:19:27 PM 40.8836 -85.6644 107° East 403 464 37,000  Level Chicago Center
Tue 11:20:27 PM 40.8525 -85.5225 106° East 405 466 37,000  Level Chicago Center
Tue 11:21:28 PM 40.8200 -85.3819 107° East 405 466 37,000  Level Chicago Center
Tue 11:22:29 PM 40.7881 -85.2339 106° East 417 480 37,000  Level Chicago Center
Tue 11:23:30 PM 40.7553 -85.0911 107° East 415 478 37,000  Level Chicago Center
Tue 11:24:31 PM 40.7228 -84.9483 107° East 410 472 37,000  Level Chicago Center
Tue 11:25:32 PM 40.6897 -84.8067 107° East 408 470 37,000  Level Chicago Center
Tue 11:26:33 PM 40.6572 -84.6653 107° East 407 468 37,000  Level Chicago Center
Tue 11:27:34 PM 40.6236 -84.5233 107° East 407 468 37,000  Level Chicago Center
Tue 11:28:00 PM 40.6047 -84.4422 107° East 407 468 37,000  Level Indianapolis Center
Tue 11:29:01 PM 40.5719 -84.2978 107° East 410 472 37,000  Level Indianapolis Center
Tue 11:30:02 PM 40.5364 -84.1550 108° East 407 468 37,000  Level Indianapolis Center
Tue 11:31:03 PM 40.5031 -84.0111 107° East 408 470 37,000  Level Indianapolis Center
Tue 11:32:04 PM 40.4686 -83.8706 108° East 402 463 37,000  Level Indianapolis Center
Tue 11:33:05 PM 40.4347 -83.7292 107° East 402 463 37,000 -49 Level Indianapolis Center
Tue 11:34:06 PM 40.4017 -83.5894 107° East 397 457 36,900 -49 Descending Indianapolis Center
Tue 11:35:07 PM 40.3669 -83.4506 108° East 396 456 36,900 49 Level Indianapolis Center
Tue 11:36:08 PM 40.3331 -83.3103 108° East 398 458 37,000 49 Climbing Indianapolis Center
Tue 11:37:09 PM 40.2992 -83.1717 108° East 395 455 37,000  Level Indianapolis Center
Tue 11:38:10 PM 40.2811 -83.0269 99° East 399 459 37,000 -49 Level Indianapolis Center
Tue 11:39:11 PM 40.2633 -82.8828 99° East 397 457 36,900  Descending Indianapolis Center
Tue 11:40:12 PM 40.2436 -82.7372 100° East 400 460 37,000 49 Climbing Indianapolis Center
Tue 11:41:13 PM 40.2253 -82.5939 99° East 397 457 37,000  Level Indianapolis Center
Tue 11:42:14 PM 40.2067 -82.4489 99° East 400 460 37,000  Level Indianapolis Center
Tue 11:43:14 PM 40.1867 -82.3061 100° East 397 457 37,000  Level Indianapolis Center
Tue 11:44:15 PM 40.1683 -82.1639 100° East 394 453 37,000 -49 Level Indianapolis Center
Tue 11:45:16 PM 40.1489 -82.0228 100° East 391 450 36,900  Descending Indianapolis Center
Tue 11:46:17 PM 40.1289 -81.8819 100° East 391 450 37,000 49 Climbing Indianapolis Center
Tue 11:47:18 PM 40.1100 -81.7383 100° East 390 449 37,000  Level Indianapolis Center
Tue 11:48:19 PM 40.0903 -81.5983 100° East 391 450 37,000  Level Indianapolis Center
Tue 11:49:20 PM 40.0694 -81.4556 101° East 396 456 37,000  Level Indianapolis Center
Tue 11:50:21 PM 40.0450 -81.3144 103° East 398 458 37,000  Level Indianapolis Center
Tue 11:51:22 PM 40.0194 -81.1711 103° East 401 461 37,000  Level Indianapolis Center
Tue 11:52:09 PM 40.0058 -81.0600 99° East 393 452 37,000  Level Cleveland Center
Tue 11:53:09 PM 39.9792 -80.9244 104° East 393 452 37,000  Level Cleveland Center
Tue 11:54:09 PM 39.9544 -80.7781 102° East 398 458 37,000  Level Cleveland Center
Tue 11:55:09 PM 39.9294 -80.6344 103° East 398 458 37,000  Level Cleveland Center
Tue 11:56:09 PM 39.9025 -80.4964 104° East 398 458 37,000  Level Cleveland Center
Tue 11:57:09 PM 39.8772 -80.3531 103° East 398 458 37,000  Level Cleveland Center
Tue 11:58:43 PM 39.8367 -80.1314 103° East 389 448 37,000  Level Washington Center
Tue 11:59:44 PM 39.8106 -79.9892 103° East 394 453 37,000  Level Washington Center
Wed 12:00:44 AM 39.7803 -79.8442 105° East 404 465 37,000  Level Washington Center
Wed 12:01:43 AM 39.7542 -79.7022 103° East 404 465 37,000  Level Washington Center
Wed 12:02:46 AM 39.7275 -79.5606 104° East 404 465 37,000  Level Washington Center
Wed 12:03:44 AM 39.7008 -79.4186 104° East 404 465 37,000  Level Washington Center
Wed 12:04:43 AM 39.6742 -79.2744 103° East 404 465 37,000  Level Washington Center
Wed 12:05:46 AM 39.6431 -79.1272 105° East 404 465 37,000  Level Washington Center
Wed 12:06:43 AM 39.6181 -78.9858 103° East 404 465 37,000 -2,723 Level Washington Center
Wed 12:07:45 AM 39.5847 -78.8308 106° East 404 465 31,600 -4,250 Descending Washington Center
Wed 12:08:43 AM 39.5569 -78.6950 105° East 398 458 28,500 -2,746 Descending Washington Center
Wed 12:09:43 AM 39.5311 -78.5619 104° East 392 451 26,200 -2,200 Descending Washington Center
Wed 12:10:43 AM 39.5053 -78.4344 105° East 374 430 24,100 -2,083 Descending Washington Center
Wed 12:11:44 AM 39.4808 -78.3100 104° East 363 418 22,000 -2,050 Descending Washington Center
Wed 12:12:43 AM 39.4544 -78.1906 106° East 355 409 20,000 -2,000 Descending Washington Center
Wed 12:13:44 AM 39.4319 -78.0744 104° East 345 397 18,000 -1,918 Descending Washington Center
Wed 12:14:45 AM 39.4072 -77.9553 105° East 340 391 16,100 -1,563 Descending Washington Center
Wed 12:15:43 AM 39.3864 -77.8444 104° East 334 384 14,900 -610 Descending Washington Center
Wed 12:16:43 AM 39.3986 -77.7400 81° East 297 342 14,900 -400 Level Washington Center
Wed 12:17:43 AM 39.3878 -77.6431 98° East 285 328 14,100 -1,059 Descending Washington Center
Wed 12:18:25 AM 39.3667 -77.5833 115° Southeast 264 304 13,100 -1,313 Descending Potomac TRACON
Wed 12:19:19 AM 39.3500 -77.5000 104° East 241 277 12,000 -1,105 Descending Potomac TRACON
Wed 12:20:19 AM 39.3333 -77.4333 108° East 216 249 11,000 -1,050 Descending Potomac TRACON
Wed 12:21:19 AM 39.3167 -77.3667 108° East 213 245 9,900 -1,050 Descending Potomac TRACON
Wed 12:22:19 AM 39.3000 -77.2833 104° East 212 244 8,900 -1,000 Descending Potomac TRACON
Wed 12:23:19 AM 39.2667 -77.2167 123° Southeast 207 238 7,900 -1,000 Descending Potomac TRACON
Wed 12:24:19 AM 39.2500 -77.1500 108° East 200 230 6,900 -1,050 Descending Potomac TRACON
Wed 12:25:19 AM 39.2333 -77.0833 108° East 202 232 5,800 -1,100 Descending Potomac TRACON
Wed 12:26:19 AM 39.2167 -77.0167 108° East 209 241 4,700 -1,050 Descending Potomac TRACON
Wed 12:27:19 AM 39.2000 -76.9500 108° East 212 244 3,700 -850 Descending Potomac TRACON
Wed 12:28:19 AM 39.1833 -76.8833 108° East 192 221 3,000 -850 Descending Potomac TRACON
Wed 12:29:19 AM 39.1833 -76.8167 90° East 183 211 2,000 -900 Descending Potomac TRACON
Wed 12:30:19 AM 39.1833 -76.7500 90° East 142 163 1,200 -800 Descending Potomac TRACON

Login

Don't have an account? Register now (free) for customized features, flight alerts, and more!